Rhodanus — PGBC — position and weather

sailwx.info

Track history (hours):
 
Tides and Currents Weather Stations Pressure Air Temp Water Temp Dewpoint Dewpoint Depression Visibility Wind Speed Wind Dir Waves Ship Positions

Rhodanus

Last reported at 2017-Jul-19 21:16 UTC. Time now 2017-Jul-21 00:49 UTC.
Position N 36°39' E 013°05'.

Length 89 m; draft 4.5 m.

Type: Ship. MMSI: 245848000.

Date/timePositionNaut miles runAvg speedWind from/ knotsBaromVisibWave heightAir tempDewpointWater temp
2017-Jul-19 21:16N 36°39' E 013°05'4 8.6
2017-Jul-19 20:50N 36°37' E 013°10'3 9.0
2017-Jul-19 20:30N 36°36' E 013°13'15 8.7
2017-Jul-19 18:44N 36°28' E 013°29'2 8.5
2017-Jul-19 18:30N 36°27' E 013°31'5 8.4
2017-Jul-19 17:54N 36°25' E 013°37'7 8.3
2017-Jul-19 17:06N 36°22' E 013°44'4 8.3
2017-Jul-19 16:38N 36°20' E 013°48'3 8.2
2017-Jul-19 16:16N 36°18' E 013°52'2 8.2
2017-Jul-19 16:00N 36°17' E 013°54'4 8.3
2017-Jul-19 15:30N 36°15' E 013°58'4 8.4
2017-Jul-19 15:00N 36°13' E 014°03'4 8.3
2017-Jul-19 14:30N 36°11' E 014°08'4 8.4
2017-Jul-19 14:01N 36°09' E 014°12'4 8.7
2017-Jul-19 13:30N 36°07' E 014°17'5 8.9
2017-Jul-19 13:00N 36°05' E 014°22'4 8.8
2017-Jul-19 12:30N 36°02' E 014°26'4 8.9
2017-Jul-19 12:00N 35°58' E 014°29'4 8.8
2017-Jul-19 11:30N 35°55' E 014°33'  
2017-Jul-17 06:31N 35°53' E 014°31'0 0.0
2017-Jul-17 06:30N 35°53' E 014°31'1 1.4
2017-Jul-17 05:45N 35°54' E 014°31'2 6.9
2017-Jul-17 05:30N 35°55' E 014°33'2 4.6
2017-Jul-17 05:00N 35°57' E 014°35'6 3.7
2017-Jul-17 03:17N 35°55' E 014°42'1 4.3
2017-Jul-17 03:00N 35°54' E 014°43'5 0.5
2017-Jul-16 18:39N 35°49' E 014°40'1 8.6
2017-Jul-16 18:29N 35°49' E 014°39'12 8.0
2017-Jul-16 17:02N 35°46' E 014°25'0 8.5
2017-Jul-16 17:00N 35°46' E 014°24'4 8.5
2017-Jul-16 16:30N 35°46' E 014°19'4 8.7
2017-Jul-16 16:00N 35°46' E 014°14'4 8.7
2017-Jul-16 15:30N 35°45' E 014°09'4 8.7
2017-Jul-16 15:00N 35°45' E 014°03'164 8.6
2017-Jul-15 19:56N 35°49' E 010°41'2 4.4
2017-Jul-15 19:27N 35°49' E 010°39'0 0.0
2017-Jul-14 15:54N 35°49' E 010°39'0 0.0
2017-Jul-14 15:27N 35°49' E 010°39'3 0.1
2017-Jul-13 15:47N 35°50' E 010°42'0 0.0
2017-Jul-13 15:29N 35°50' E 010°42'0 0.0
2017-Jul-13 14:53N 35°50' E 010°42'0 0.0
2017-Jul-13 14:29N 35°50' E 010°42'0 0.0
2017-Jul-13 13:53N 35°50' E 010°42'0 0.0
2017-Jul-13 13:26N 35°50' E 010°42'0 0.0
2017-Jul-13 12:56N 35°50' E 010°42'0 0.0
2017-Jul-13 12:26N 35°50' E 010°42'0 0.0
2017-Jul-13 11:59N 35°50' E 010°42'0 0.0
2017-Jul-13 11:26N 35°50' E 010°42'0 0.0
2017-Jul-11 17:50N 35°50' E 010°42'0 0.0
2017-Jul-11 17:29N 35°50' E 010°42'0 0.0
2017-Jul-11 16:50N 35°50' E 010°42'0 0.0
2017-Jul-11 16:29N 35°50' E 010°42'0 0.0
2017-Jul-11 15:50N 35°50' E 010°42'0 0.0
2017-Jul-11 15:29N 35°50' E 010°42'0 0.0
2017-Jul-11 14:56N 35°50' E 010°42'0 0.0
2017-Jul-11 14:29N 35°50' E 010°42'0 0.0
2017-Jul-11 13:47N 35°50' E 010°42'0 0.0
2017-Jul-11 13:26N 35°50' E 010°42'0 0.0
2017-Jul-11 12:56N 35°50' E 010°42'0 0.0
2017-Jul-11 12:29N 35°50' E 010°42'0 0.0
2017-Jul-11 11:50N 35°50' E 010°42'0 0.0
2017-Jul-11 11:29N 35°50' E 010°42'0 0.0
2017-Jul-11 10:56N 35°50' E 010°42'0 0.0
2017-Jul-11 10:11N 35°50' E 010°42'0 0.0
2017-Jul-11 09:41N 35°50' E 010°42'0 0.0
2017-Jul-11 09:26N 35°50' E 010°42'0 0.0
2017-Jul-11 08:59N 35°50' E 010°42'0 0.0
2017-Jul-10 17:47N 35°50' E 010°42'0 0.0
2017-Jul-10 17:29N 35°50' E 010°42'0 0.0
2017-Jul-10 16:59N 35°50' E 010°42'0 0.0
2017-Jul-10 16:29N 35°50' E 010°42'0 0.0
2017-Jul-10 15:53N 35°50' E 010°42'0 0.0
2017-Jul-10 15:29N 35°50' E 010°42'0 0.0
2017-Jul-10 14:59N 35°50' E 010°42'0 0.0
2017-Jul-10 14:29N 35°50' E 010°42'0 0.0
2017-Jul-10 13:59N 35°50' E 010°42'0 0.0
2017-Jul-10 13:29N 35°50' E 010°42'0 0.0
2017-Jul-10 12:59N 35°50' E 010°42'0 0.0
2017-Jul-10 12:29N 35°50' E 010°42'0 0.0
2017-Jul-10 11:59N 35°50' E 010°42'0 0.0
2017-Jul-10 11:29N 35°50' E 010°42'0 0.0
2017-Jul-10 10:56N 35°50' E 010°42'0 0.0
2017-Jul-10 10:29N 35°50' E 010°42'0 0.0
2017-Jul-10 09:59N 35°50' E 010°42'0 0.0
2017-Jul-10 09:29N 35°50' E 010°42'0 0.0
2017-Jul-10 07:26N 35°50' E 010°42'0 0.0
2017-Jul-10 06:56N 35°50' E 010°42'0 0.0
2017-Jul-10 04:47N 35°50' E 010°42'  
Track history (hours):
 
Tides and Currents Weather Stations Pressure Air Temp Water Temp Dewpoint Dewpoint Depression Visibility Wind Speed Wind Dir Waves Ship Positions

Rhodanus

Last reported at 2017-Jul-19 21:16 UTC. Time now 2017-Jul-21 00:49 UTC.
Position N 36°39' E 013°05'.

Length 89 m; draft 4.5 m.

Type: Ship. MMSI: 245848000.

Date/timePositionNaut miles runAvg speedWind from/ knotsBaromVisibWave heightAir tempDewpointWater temp
2017-Jul-19 21:16N 36°39' E 013°05'4 8.6
2017-Jul-19 20:50N 36°37' E 013°10'3 9.0
2017-Jul-19 20:30N 36°36' E 013°13'15 8.7
2017-Jul-19 18:44N 36°28' E 013°29'2 8.5
2017-Jul-19 18:30N 36°27' E 013°31'5 8.4
2017-Jul-19 17:54N 36°25' E 013°37'7 8.3
2017-Jul-19 17:06N 36°22' E 013°44'4 8.3
2017-Jul-19 16:38N 36°20' E 013°48'3 8.2
2017-Jul-19 16:16N 36°18' E 013°52'2 8.2
2017-Jul-19 16:00N 36°17' E 013°54'4 8.3
2017-Jul-19 15:30N 36°15' E 013°58'4 8.4
2017-Jul-19 15:00N 36°13' E 014°03'4 8.3
2017-Jul-19 14:30N 36°11' E 014°08'4 8.4
2017-Jul-19 14:01N 36°09' E 014°12'4 8.7
2017-Jul-19 13:30N 36°07' E 014°17'5 8.9
2017-Jul-19 13:00N 36°05' E 014°22'4 8.8
2017-Jul-19 12:30N 36°02' E 014°26'4 8.9
2017-Jul-19 12:00N 35°58' E 014°29'4 8.8
2017-Jul-19 11:30N 35°55' E 014°33'  
2017-Jul-17 06:31N 35°53' E 014°31'0 0.0
2017-Jul-17 06:30N 35°53' E 014°31'1 1.4
2017-Jul-17 05:45N 35°54' E 014°31'2 6.9
2017-Jul-17 05:30N 35°55' E 014°33'2 4.6
2017-Jul-17 05:00N 35°57' E 014°35'6 3.7
2017-Jul-17 03:17N 35°55' E 014°42'1 4.3
2017-Jul-17 03:00N 35°54' E 014°43'5 0.5
2017-Jul-16 18:39N 35°49' E 014°40'1 8.6
2017-Jul-16 18:29N 35°49' E 014°39'12 8.0
2017-Jul-16 17:02N 35°46' E 014°25'0 8.5
2017-Jul-16 17:00N 35°46' E 014°24'4 8.5
2017-Jul-16 16:30N 35°46' E 014°19'4 8.7
2017-Jul-16 16:00N 35°46' E 014°14'4 8.7
2017-Jul-16 15:30N 35°45' E 014°09'4 8.7
2017-Jul-16 15:00N 35°45' E 014°03'164 8.6
2017-Jul-15 19:56N 35°49' E 010°41'2 4.4
2017-Jul-15 19:27N 35°49' E 010°39'0 0.0
2017-Jul-14 15:54N 35°49' E 010°39'0 0.0
2017-Jul-14 15:27N 35°49' E 010°39'3 0.1
2017-Jul-13 15:47N 35°50' E 010°42'0 0.0
2017-Jul-13 15:29N 35°50' E 010°42'0 0.0
2017-Jul-13 14:53N 35°50' E 010°42'0 0.0
2017-Jul-13 14:29N 35°50' E 010°42'0 0.0
2017-Jul-13 13:53N 35°50' E 010°42'0 0.0
2017-Jul-13 13:26N 35°50' E 010°42'0 0.0
2017-Jul-13 12:56N 35°50' E 010°42'0 0.0
2017-Jul-13 12:26N 35°50' E 010°42'0 0.0
2017-Jul-13 11:59N 35°50' E 010°42'0 0.0
2017-Jul-13 11:26N 35°50' E 010°42'0 0.0
2017-Jul-11 17:50N 35°50' E 010°42'0 0.0
2017-Jul-11 17:29N 35°50' E 010°42'0 0.0
2017-Jul-11 16:50N 35°50' E 010°42'0 0.0
2017-Jul-11 16:29N 35°50' E 010°42'0 0.0
2017-Jul-11 15:50N 35°50' E 010°42'0 0.0
2017-Jul-11 15:29N 35°50' E 010°42'0 0.0
2017-Jul-11 14:56N 35°50' E 010°42'0 0.0
2017-Jul-11 14:29N 35°50' E 010°42'0 0.0
2017-Jul-11 13:47N 35°50' E 010°42'0 0.0
2017-Jul-11 13:26N 35°50' E 010°42'0 0.0
2017-Jul-11 12:56N 35°50' E 010°42'0 0.0
2017-Jul-11 12:29N 35°50' E 010°42'0 0.0
2017-Jul-11 11:50N 35°50' E 010°42'0 0.0
2017-Jul-11 11:29N 35°50' E 010°42'0 0.0
2017-Jul-11 10:56N 35°50' E 010°42'0 0.0
2017-Jul-11 10:11N 35°50' E 010°42'0 0.0
2017-Jul-11 09:41N 35°50' E 010°42'0 0.0
2017-Jul-11 09:26N 35°50' E 010°42'0 0.0
2017-Jul-11 08:59N 35°50' E 010°42'0 0.0
2017-Jul-10 17:47N 35°50' E 010°42'0 0.0
2017-Jul-10 17:29N 35°50' E 010°42'0 0.0
2017-Jul-10 16:59N 35°50' E 010°42'0 0.0
2017-Jul-10 16:29N 35°50' E 010°42'0 0.0
2017-Jul-10 15:53N 35°50' E 010°42'0 0.0
2017-Jul-10 15:29N 35°50' E 010°42'0 0.0
2017-Jul-10 14:59N 35°50' E 010°42'0 0.0
2017-Jul-10 14:29N 35°50' E 010°42'0 0.0
2017-Jul-10 13:59N 35°50' E 010°42'0 0.0
2017-Jul-10 13:29N 35°50' E 010°42'0 0.0
2017-Jul-10 12:59N 35°50' E 010°42'0 0.0
2017-Jul-10 12:29N 35°50' E 010°42'0 0.0
2017-Jul-10 11:59N 35°50' E 010°42'0 0.0
2017-Jul-10 11:29N 35°50' E 010°42'0 0.0
2017-Jul-10 10:56N 35°50' E 010°42'0 0.0
2017-Jul-10 10:29N 35°50' E 010°42'0 0.0
2017-Jul-10 09:59N 35°50' E 010°42'0 0.0
2017-Jul-10 09:29N 35°50' E 010°42'0 0.0
2017-Jul-10 07:26N 35°50' E 010°42'0 0.0
2017-Jul-10 06:56N 35°50' E 010°42'0 0.0
2017-Jul-10 04:47N 35°50' E 010°42'  

Dump ship's entire track history